createdAt,value
2022-11-09T00:04:28.904Z,5.96
2022-11-09T00:09:49.776Z,5.89
2022-11-09T00:15:10.395Z,5.84
2022-11-09T00:20:30.970Z,5.85
2022-11-09T00:25:51.706Z,5.84
2022-11-09T00:31:14.504Z,5.76
2022-11-09T00:36:35.308Z,5.75
2022-11-09T00:41:56.145Z,5.70
2022-11-09T00:47:17.060Z,5.56
2022-11-09T00:52:38.456Z,5.44
2022-11-09T00:57:59.174Z,5.36
2022-11-09T01:03:21.063Z,5.41
2022-11-09T01:08:41.856Z,5.54
2022-11-09T01:14:02.348Z,5.73
2022-11-09T01:19:23.189Z,5.77
2022-11-09T01:24:46.779Z,5.79
2022-11-09T01:30:07.756Z,5.75
2022-11-09T01:35:28.822Z,5.69
2022-11-09T01:40:49.957Z,5.64
2022-11-09T01:46:24.221Z,5.62
2022-11-09T01:51:50.794Z,5.64
2022-11-09T01:57:15.020Z,5.58
2022-11-09T02:02:36.495Z,5.55
2022-11-09T02:07:58.479Z,5.53
2022-11-09T02:13:21.805Z,5.49
2022-11-09T02:18:51.621Z,5.46
2022-11-09T02:24:12.728Z,5.36
2022-11-09T02:29:35.717Z,5.27
2022-11-09T02:34:57.010Z,5.29
2022-11-09T02:40:28.998Z,5.23
2022-11-09T02:45:50.060Z,5.16
2022-11-09T02:51:10.862Z,5.12
2022-11-09T02:56:31.603Z,5.33
2022-11-09T03:01:53.591Z,5.14
2022-11-09T03:07:14.824Z,4.69
2022-11-09T03:12:36.302Z,4.52
2022-11-09T03:18:00.987Z,4.36
2022-11-09T03:23:22.096Z,4.22
2022-11-09T03:28:43.260Z,4.34
2022-11-09T03:34:04.006Z,4.40
2022-11-09T03:39:24.981Z,4.47
2022-11-09T03:44:45.428Z,4.52
2022-11-09T03:50:06.418Z,4.60
2022-11-09T03:55:27.386Z,4.63
2022-11-09T04:00:48.249Z,4.51
2022-11-09T04:06:09.041Z,4.29
2022-11-09T04:11:29.967Z,4.04
2022-11-09T04:16:50.792Z,3.95
2022-11-09T04:22:11.579Z,4.11
2022-11-09T04:27:32.499Z,4.21
2022-11-09T04:32:53.595Z,4.23
2022-11-09T04:38:14.905Z,4.21
2022-11-09T04:43:35.654Z,4.27
2022-11-09T04:48:56.467Z,4.24
2022-11-09T04:54:17.331Z,4.48
2022-11-09T04:59:38.132Z,4.58
2022-11-09T05:04:58.844Z,4.42
2022-11-09T05:10:19.856Z,4.10
2022-11-09T05:15:40.812Z,4.03
2022-11-09T05:21:02.106Z,3.96
2022-11-09T05:26:22.891Z,3.92
2022-11-09T05:31:51.841Z,3.91
2022-11-09T05:37:13.541Z,3.84
2022-11-09T05:42:34.704Z,3.81
2022-11-09T05:47:55.287Z,3.79
2022-11-09T05:53:16.070Z,3.90
2022-11-09T05:58:38.787Z,3.90
2022-11-09T06:03:59.529Z,3.99
2022-11-09T06:09:20.509Z,4.00
2022-11-09T06:14:41.076Z,4.01
2022-11-09T06:20:01.926Z,4.00
2022-11-09T06:25:23.222Z,4.05
2022-11-09T06:30:44.130Z,4.12
2022-11-09T06:36:05.470Z,4.20
2022-11-09T06:41:26.377Z,4.30
2022-11-09T06:46:47.190Z,4.37
2022-11-09T06:52:07.965Z,4.44
2022-11-09T06:57:31.855Z,4.50
2022-11-09T07:02:52.782Z,4.57
2022-11-09T07:08:13.805Z,4.64
2022-11-09T07:13:34.559Z,4.73
2022-11-09T07:18:55.126Z,4.77
2022-11-09T07:24:15.838Z,4.90
2022-11-09T07:29:36.859Z,5.04
2022-11-09T07:34:57.598Z,5.11
2022-11-09T07:40:18.772Z,5.15
2022-11-09T07:45:39.584Z,5.24
2022-11-09T07:51:01.041Z,5.26
2022-11-09T07:56:21.601Z,5.27
2022-11-09T08:01:42.445Z,5.39
2022-11-09T08:07:03.403Z,5.47
2022-11-09T08:12:24.065Z,5.44
2022-11-09T08:17:45.021Z,5.45
2022-11-09T08:23:06.165Z,5.40
2022-11-09T08:28:26.920Z,5.40
2022-11-09T08:33:47.903Z,5.41
2022-11-09T08:39:08.741Z,5.46
2022-11-09T08:44:29.328Z,5.51
2022-11-09T08:49:50.251Z,5.54
2022-11-09T08:55:11.147Z,5.61
2022-11-09T09:00:32.277Z,5.73
2022-11-09T09:05:52.911Z,5.83
2022-11-09T09:11:13.891Z,5.94
2022-11-09T09:16:34.437Z,6.03
2022-11-09T09:21:55.570Z,6.14
2022-11-09T09:27:16.376Z,6.22
2022-11-09T09:32:36.834Z,6.30
2022-11-09T09:37:58.403Z,6.26
2022-11-09T09:43:45.983Z,6.42
2022-11-09T09:49:10.875Z,6.50
2022-11-09T09:54:35.731Z,6.57
2022-11-09T09:59:59.331Z,6.71
2022-11-09T10:05:20.857Z,6.88
2022-11-09T10:10:47.883Z,7.03
2022-11-09T10:16:27.538Z,7.10
2022-11-09T10:21:52.615Z,7.21
2022-11-09T10:27:25.984Z,7.38
2022-11-09T10:32:55.149Z,7.60
2022-11-09T10:38:21.334Z,7.83
2022-11-09T10:44:01.177Z,8.09
2022-11-09T10:49:40.939Z,8.32
2022-11-09T10:55:27.657Z,8.40
2022-11-09T11:01:13.611Z,8.50
2022-11-09T11:06:53.144Z,8.65
2022-11-09T11:12:32.720Z,8.78
2022-11-09T11:18:23.671Z,8.95
2022-11-09T11:24:02.902Z,9.20
2022-11-09T11:30:00.913Z,9.24
2022-11-09T11:35:55.372Z,9.27
2022-11-09T11:41:45.988Z,9.46
2022-11-09T11:47:28.434Z,9.86
2022-11-09T11:53:26.101Z,10.05
2022-11-09T11:59:08.227Z,10.12
2022-11-09T12:05:14.393Z,10.24
2022-11-09T12:10:53.790Z,10.48
2022-11-09T12:16:44.887Z,10.61
2022-11-09T12:22:24.237Z,10.52
2022-11-09T12:28:14.695Z,10.40
2022-11-09T12:34:07.637Z,10.25
2022-11-09T12:39:48.872Z,10.19
2022-11-09T12:45:31.092Z,10.09
2022-11-09T12:51:10.708Z,9.99
2022-11-09T12:56:54.489Z,9.92
2022-11-09T13:02:38.326Z,9.90
2022-11-09T13:08:20.117Z,9.91
2022-11-09T13:14:19.208Z,9.83
2022-11-09T13:19:58.362Z,9.81
2022-11-09T13:25:48.296Z,9.88
2022-11-09T13:31:46.818Z,9.95
2022-11-09T13:37:34.983Z,9.97
2022-11-09T13:43:16.686Z,9.94
2022-11-09T13:48:56.151Z,9.84
2022-11-09T13:54:36.735Z,9.80
2022-11-09T14:00:25.375Z,9.79
2022-11-09T14:06:04.503Z,9.76
2022-11-09T14:11:54.373Z,9.72
2022-11-09T14:17:41.143Z,9.70
2022-11-09T14:23:21.936Z,9.67
2022-11-09T14:29:11.005Z,9.65
2022-11-09T14:34:50.481Z,9.65
2022-11-09T14:40:31.058Z,9.67
2022-11-09T14:46:16.074Z,9.58
2022-11-09T14:51:55.527Z,9.52
2022-11-09T14:57:36.586Z,9.45
2022-11-09T15:03:27.264Z,9.42
2022-11-09T15:09:08.709Z,9.42
2022-11-09T15:14:53.694Z,9.41
2022-11-09T15:20:34.126Z,9.38
2022-11-09T15:26:43.668Z,9.36
2022-11-09T15:32:24.520Z,9.32
2022-11-09T15:38:04.173Z,9.21
2022-11-09T15:43:44.379Z,9.17
2022-11-09T15:49:26.396Z,9.45
2022-11-09T15:55:06.075Z,9.65
2022-11-09T16:00:46.039Z,9.52
2022-11-09T16:06:26.946Z,9.46
2022-11-09T16:12:06.508Z,9.31
2022-11-09T16:17:46.170Z,9.21
2022-11-09T16:23:28.942Z,9.20
2022-11-09T16:29:08.472Z,9.13
2022-11-09T16:35:08.472Z,9.15
2022-11-09T16:40:47.345Z,9.23
2022-11-09T16:46:28.604Z,9.27
2022-11-09T16:52:09.452Z,9.21
2022-11-09T16:57:48.931Z,8.99
2022-11-09T17:03:28.411Z,8.77
2022-11-09T17:09:07.836Z,8.65
2022-11-09T17:14:48.485Z,8.66
2022-11-09T17:20:28.049Z,8.59
2022-11-09T17:26:08.000Z,8.67
2022-11-09T17:31:47.671Z,8.64
2022-11-09T17:37:27.421Z,8.75
2022-11-09T17:43:06.999Z,9.94
2022-11-09T17:48:47.551Z,9.67
2022-11-09T17:54:35.507Z,9.18
2022-11-09T18:00:16.926Z,9.11
2022-11-09T18:05:56.576Z,9.10
2022-11-09T18:11:36.225Z,9.13
2022-11-09T18:17:15.616Z,9.24
2022-11-09T18:22:55.367Z,9.14
2022-11-09T18:28:35.403Z,9.05
2022-11-09T18:34:15.105Z,9.15
2022-11-09T18:39:54.559Z,9.18
2022-11-09T18:45:34.951Z,9.14
2022-11-09T18:51:13.944Z,8.99
2022-11-09T18:56:53.419Z,8.95
2022-11-09T19:02:34.662Z,8.97
2022-11-09T19:08:16.434Z,8.95
2022-11-09T19:13:56.226Z,8.91
2022-11-09T19:19:35.715Z,8.89
2022-11-09T19:25:15.122Z,8.78
2022-11-09T19:30:54.699Z,8.68
2022-11-09T19:36:33.946Z,8.63
2022-11-09T19:42:14.127Z,8.56
2022-11-09T19:47:53.884Z,8.59
2022-11-09T19:53:36.966Z,8.64
2022-11-09T19:59:20.809Z,8.65
2022-11-09T20:05:00.410Z,8.62
2022-11-09T20:10:39.792Z,8.61
2022-11-09T20:16:19.070Z,8.60
2022-11-09T20:21:58.582Z,8.57
2022-11-09T20:27:38.222Z,8.55
2022-11-09T20:33:17.740Z,8.53
2022-11-09T20:38:57.239Z,8.53
2022-11-09T20:44:36.601Z,8.47
2022-11-09T20:50:16.010Z,8.41
2022-11-09T20:55:55.720Z,8.39
2022-11-09T21:01:35.130Z,8.36
2022-11-09T21:07:14.766Z,8.35
2022-11-09T21:12:54.537Z,8.36
2022-11-09T21:18:33.815Z,8.38
2022-11-09T21:24:32.135Z,8.39
2022-11-09T21:30:12.008Z,8.34
2022-11-09T21:35:51.588Z,8.35
2022-11-09T21:41:39.957Z,8.29
2022-11-09T21:47:19.310Z,8.35
2022-11-09T21:52:58.404Z,8.37
2022-11-09T21:58:37.547Z,8.31
2022-11-09T22:04:17.011Z,8.26
2022-11-09T22:10:10.085Z,8.21
2022-11-09T22:16:09.338Z,8.23
2022-11-09T22:21:48.804Z,8.31
2022-11-09T22:27:30.023Z,8.28
2022-11-09T22:33:09.301Z,8.21
2022-11-09T22:38:48.858Z,8.13
2022-11-09T22:44:28.133Z,8.13
2022-11-09T22:50:07.861Z,8.18
2022-11-09T22:55:51.839Z,8.13
2022-11-09T23:01:31.239Z,8.13
2022-11-09T23:07:10.544Z,8.17
2022-11-09T23:12:50.493Z,8.29
2022-11-09T23:18:49.034Z,8.34
2022-11-09T23:24:47.300Z,8.38
2022-11-09T23:30:26.881Z,8.31
2022-11-09T23:36:06.856Z,8.27
2022-11-09T23:41:46.392Z,8.27
2022-11-09T23:47:25.538Z,8.20
2022-11-09T23:53:04.773Z,8.14
2022-11-09T23:58:46.827Z,8.12
